Resolute Bay Airport
CYRB : now visible

Airfield :











YOU CAN JOIN US ON...

 
LOGIN :

Register | Disclaimer

   EN    FR    IT 

 









Legend :    VFR   Marginal VFR   IFR   Intensive IFR   Very Intensive IFR
Visi :
Ceiling :
>= 8 km
>= 3000ft
5 to 8 km
1000 to 3000 ft
1500m to 5 km
500 to 1000 ft
800 to 1500m
200 to 500 ft
< 800m
< 200 ft
Symbols :   Thunderstorms  Fog  Heavy snow  Heavy precipitations  Wind > 20 kt






- Airport Elevation : 215 ft
- IATA code : YRB


CYRB - Resolute Bay

CURRENT METAR :
  • 250700Z 34007KT 15SM IC SKC M34/M37 A3027 RMK SLP266

EXPIRED METARs :
  • 250600Z 34007KT 15SM IC SKC M35/M39 A3026 RMK SLP264
  • 250500Z 34006KT 15SM IC SKC M35/M38 A3027 RMK SLP266

TAF TAF CYRB
Valid from the 25 at 06:00 until the 26 at 06:00 UTC


250539Z 2506/2606 32006KT P6SM FEW040
TEMPO 2506/2512 5SM -SN BKN040
FM251200 29008KT P6SM -SN SCT040 BKN100
TEMPO 2512/2606 3SM -SN BKN020 OVC040 RMK NXT FCST BY 251200Z



MET'MAP, your aeronautical weather chart ! - Copyright ORBIFLY December 2007 - Disclaimer

ORBIFLY MET'MAP TEAM :

Programming & Development : Alexandra Zaïnal
Concept & original design : Baudouin d'Aumeries
Assistance for programming : Marc-Olivier Méhu
Technical & hardware support : Manuel Goepfert

Contact : metmap@orbifly.com




SOURCES & CREDITS :

   NOAA       Earth
Advisory